sensor_id;sensor_type;location;lat;lon;timestamp;P1;durP1;ratioP1;P2;durP2;ratioP2
22768;SDS011;13001;51.968;5.918;2022-10-30T00:02:16;782.55;;;718.17;;
22768;SDS011;13001;51.968;5.918;2022-10-30T00:04:43;806.50;;;737.60;;
22768;SDS011;13001;51.968;5.918;2022-10-30T00:07:10;802.80;;;735.30;;
22768;SDS011;13001;51.968;5.918;2022-10-30T00:09:38;791.90;;;725.42;;
22768;SDS011;13001;51.968;5.918;2022-10-30T00:12:07;818.95;;;749.17;;
22768;SDS011;13001;51.968;5.918;2022-10-30T00:14:36;812.23;;;742.85;;
22768;SDS011;13001;51.968;5.918;2022-10-30T00:17:04;804.10;;;736.17;;
22768;SDS011;13001;51.968;5.918;2022-10-30T00:19:32;835.92;;;762.95;;
22768;SDS011;13001;51.968;5.918;2022-10-30T00:21:59;821.05;;;751.73;;
22768;SDS011;13001;51.968;5.918;2022-10-30T00:24:28;803.50;;;735.97;;
22768;SDS011;13001;51.968;5.918;2022-10-30T00:26:55;653.67;;;601.30;;
22768;SDS011;13001;51.968;5.918;2022-10-30T00:29:22;802.27;;;733.90;;
22768;SDS011;13001;51.968;5.918;2022-10-30T00:31:51;783.70;;;717.42;;
22768;SDS011;13001;51.968;5.918;2022-10-30T00:34:19;776.48;;;712.75;;
22768;SDS011;13001;51.968;5.918;2022-10-30T00:36:46;745.60;;;684.10;;
22768;SDS011;13001;51.968;5.918;2022-10-30T00:39:13;767.05;;;704.33;;
22768;SDS011;13001;51.968;5.918;2022-10-30T00:41:41;764.83;;;701.85;;
22768;SDS011;13001;51.968;5.918;2022-10-30T00:46:53;773.30;;;709.27;;
22768;SDS011;13001;51.968;5.918;2022-10-30T00:49:20;750.27;;;688.60;;
22768;SDS011;13001;51.968;5.918;2022-10-30T00:51:49;725.02;;;667.55;;
22768;SDS011;13001;51.968;5.918;2022-10-30T00:54:17;729.15;;;670.88;;
22768;SDS011;13001;51.968;5.918;2022-10-30T00:56:44;727.28;;;670.05;;
22768;SDS011;13001;51.968;5.918;2022-10-30T00:59:15;701.10;;;645.80;;
22768;SDS011;13001;51.968;5.918;2022-10-30T01:01:43;715.28;;;658.98;;
22768;SDS011;13001;51.968;5.918;2022-10-30T01:04:11;706.73;;;651.15;;
22768;SDS011;13001;51.968;5.918;2022-10-30T01:06:39;719.77;;;663.20;;
22768;SDS011;13001;51.968;5.918;2022-10-30T01:09:07;706.02;;;649.92;;
22768;SDS011;13001;51.968;5.918;2022-10-30T01:11:34;695.60;;;640.70;;
22768;SDS011;13001;51.968;5.918;2022-10-30T01:14:03;716.12;;;660.08;;
22768;SDS011;13001;51.968;5.918;2022-10-30T01:16:40;688.80;;;633.90;;
22768;SDS011;13001;51.968;5.918;2022-10-30T01:22:06;688.70;;;633.42;;
22768;SDS011;13001;51.968;5.918;2022-10-30T01:24:41;700.38;;;644.88;;
22768;SDS011;13001;51.968;5.918;2022-10-30T01:27:12;703.88;;;647.70;;
22768;SDS011;13001;51.968;5.918;2022-10-30T01:29:42;691.75;;;636.62;;
22768;SDS011;13001;51.968;5.918;2022-10-30T01:32:16;711.12;;;654.70;;
22768;SDS011;13001;51.968;5.918;2022-10-30T01:37:18;704.12;;;647.10;;
22768;SDS011;13001;51.968;5.918;2022-10-30T01:39:41;704.80;;;648.10;;
22768;SDS011;13001;51.968;5.918;2022-10-30T01:44:53;703.05;;;646.67;;
22768;SDS011;13001;51.968;5.918;2022-10-30T01:55:36;720.80;;;663.08;;
22768;SDS011;13001;51.968;5.918;2022-10-30T01:58:20;714.00;;;656.15;;
22768;SDS011;13001;51.968;5.918;2022-10-30T02:00:49;696.53;;;641.00;;
22768;SDS011;13001;51.968;5.918;2022-10-30T02:03:17;704.33;;;647.73;;
22768;SDS011;13001;51.968;5.918;2022-10-30T02:05:49;689.63;;;633.87;;
22768;SDS011;13001;51.968;5.918;2022-10-30T02:08:16;694.10;;;638.70;;
22768;SDS011;13001;51.968;5.918;2022-10-30T02:10:45;691.80;;;636.20;;
22768;SDS011;13001;51.968;5.918;2022-10-30T02:13:13;691.00;;;636.40;;
22768;SDS011;13001;51.968;5.918;2022-10-30T02:15:40;704.77;;;647.77;;
22768;SDS011;13001;51.968;5.918;2022-10-30T02:18:09;673.90;;;620.30;;
22768;SDS011;13001;51.968;5.918;2022-10-30T02:20:36;649.35;;;596.83;;
22768;SDS011;13001;51.968;5.918;2022-10-30T02:23:03;664.08;;;611.25;;
22768;SDS011;13001;51.968;5.918;2022-10-30T02:25:31;674.52;;;619.85;;
22768;SDS011;13001;51.968;5.918;2022-10-30T02:27:58;654.98;;;602.70;;
22768;SDS011;13001;51.968;5.918;2022-10-30T02:30:26;683.70;;;627.77;;
22768;SDS011;13001;51.968;5.918;2022-10-30T02:32:53;616.52;;;565.12;;
22768;SDS011;13001;51.968;5.918;2022-10-30T02:35:21;612.85;;;564.08;;
22768;SDS011;13001;51.968;5.918;2022-10-30T02:37:48;688.93;;;633.37;;
22768;SDS011;13001;51.968;5.918;2022-10-30T02:40:15;621.65;;;570.40;;
22768;SDS011;13001;51.968;5.918;2022-10-30T02:42:42;649.75;;;595.80;;
22768;SDS011;13001;51.968;5.918;2022-10-30T02:45:10;659.55;;;605.70;;
22768;SDS011;13001;51.968;5.918;2022-10-30T02:47:37;626.08;;;574.25;;
22768;SDS011;13001;51.968;5.918;2022-10-30T02:50:05;652.10;;;601.42;;
22768;SDS011;13001;51.968;5.918;2022-10-30T02:52:32;683.25;;;630.08;;
22768;SDS011;13001;51.968;5.918;2022-10-30T02:54:59;641.83;;;592.40;;
22768;SDS011;13001;51.968;5.918;2022-10-30T02:57:26;686.25;;;632.80;;
22768;SDS011;13001;51.968;5.918;2022-10-30T02:59:54;678.62;;;626.17;;
22768;SDS011;13001;51.968;5.918;2022-10-30T03:02:21;668.92;;;617.03;;
22768;SDS011;13001;51.968;5.918;2022-10-30T03:04:48;684.77;;;630.67;;
22768;SDS011;13001;51.968;5.918;2022-10-30T03:07:15;685.33;;;631.63;;
22768;SDS011;13001;51.968;5.918;2022-10-30T03:09:43;664.45;;;613.83;;
22768;SDS011;13001;51.968;5.918;2022-10-30T03:12:10;697.65;;;641.40;;
22768;SDS011;13001;51.968;5.918;2022-10-30T03:14:39;673.67;;;620.10;;
22768;SDS011;13001;51.968;5.918;2022-10-30T03:17:06;644.13;;;594.50;;
22768;SDS011;13001;51.968;5.918;2022-10-30T03:19:33;649.83;;;599.98;;
22768;SDS011;13001;51.968;5.918;2022-10-30T03:22:01;614.10;;;564.73;;
22768;SDS011;13001;51.968;5.918;2022-10-30T03:24:29;626.53;;;578.10;;
22768;SDS011;13001;51.968;5.918;2022-10-30T03:26:56;615.55;;;565.25;;
22768;SDS011;13001;51.968;5.918;2022-10-30T03:29:23;622.90;;;572.77;;
22768;SDS011;13001;51.968;5.918;2022-10-30T03:31:51;625.58;;;574.10;;
22768;SDS011;13001;51.968;5.918;2022-10-30T03:34:18;633.53;;;580.35;;
22768;SDS011;13001;51.968;5.918;2022-10-30T03:36:45;645.20;;;592.27;;
22768;SDS011;13001;51.968;5.918;2022-10-30T03:39:13;691.38;;;636.02;;
22768;SDS011;13001;51.968;5.918;2022-10-30T03:41:40;709.98;;;653.67;;
22768;SDS011;13001;51.968;5.918;2022-10-30T03:44:08;722.35;;;665.20;;
22768;SDS011;13001;51.968;5.918;2022-10-30T03:46:36;724.87;;;667.53;;
22768;SDS011;13001;51.968;5.918;2022-10-30T03:49:04;747.17;;;688.40;;
22768;SDS011;13001;51.968;5.918;2022-10-30T03:51:31;729.77;;;671.08;;
22768;SDS011;13001;51.968;5.918;2022-10-30T03:53:58;684.27;;;627.95;;
22768;SDS011;13001;51.968;5.918;2022-10-30T03:56:25;735.60;;;677.70;;
22768;SDS011;13001;51.968;5.918;2022-10-30T03:58:53;687.90;;;629.30;;
22768;SDS011;13001;51.968;5.918;2022-10-30T04:01:20;711.00;;;653.70;;
22768;SDS011;13001;51.968;5.918;2022-10-30T04:03:47;727.45;;;669.95;;
22768;SDS011;13001;51.968;5.918;2022-10-30T04:06:14;737.25;;;677.80;;
22768;SDS011;13001;51.968;5.918;2022-10-30T04:08:42;722.77;;;664.35;;
22768;SDS011;13001;51.968;5.918;2022-10-30T04:11:09;706.90;;;650.80;;
22768;SDS011;13001;51.968;5.918;2022-10-30T04:13:39;630.75;;;577.70;;
22768;SDS011;13001;51.968;5.918;2022-10-30T04:16:07;643.87;;;588.83;;
22768;SDS011;13001;51.968;5.918;2022-10-30T04:18:34;671.95;;;615.67;;
22768;SDS011;13001;51.968;5.918;2022-10-30T04:21:02;638.75;;;584.27;;
22768;SDS011;13001;51.968;5.918;2022-10-30T04:23:29;634.27;;;580.48;;
22768;SDS011;13001;51.968;5.918;2022-10-30T04:25:58;719.30;;;660.95;;
22768;SDS011;13001;51.968;5.918;2022-10-30T04:28:27;723.23;;;665.20;;
22768;SDS011;13001;51.968;5.918;2022-10-30T04:30:54;676.80;;;621.67;;
22768;SDS011;13001;51.968;5.918;2022-10-30T04:33:22;615.85;;;564.42;;
22768;SDS011;13001;51.968;5.918;2022-10-30T04:35:49;635.13;;;585.85;;
22768;SDS011;13001;51.968;5.918;2022-10-30T04:38:17;625.45;;;577.70;;
22768;SDS011;13001;51.968;5.918;2022-10-30T04:40:45;609.35;;;562.08;;
22768;SDS011;13001;51.968;5.918;2022-10-30T04:43:12;601.35;;;553.35;;
22768;SDS011;13001;51.968;5.918;2022-10-30T04:45:40;614.32;;;563.15;;
22768;SDS011;13001;51.968;5.918;2022-10-30T04:48:13;684.87;;;627.43;;
22768;SDS011;13001;51.968;5.918;2022-10-30T04:50:36;728.52;;;669.85;;
22768;SDS011;13001;51.968;5.918;2022-10-30T04:53:09;668.27;;;612.40;;
22768;SDS011;13001;51.968;5.918;2022-10-30T04:55:35;726.13;;;667.63;;
22768;SDS011;13001;51.968;5.918;2022-10-30T04:58:03;770.17;;;709.37;;
22768;SDS011;13001;51.968;5.918;2022-10-30T05:00:30;739.83;;;680.33;;
22768;SDS011;13001;51.968;5.918;2022-10-30T05:02:58;743.08;;;682.77;;
22768;SDS011;13001;51.968;5.918;2022-10-30T05:05:26;785.13;;;721.63;;
22768;SDS011;13001;51.968;5.918;2022-10-30T05:07:54;763.47;;;702.33;;
22768;SDS011;13001;51.968;5.918;2022-10-30T05:10:21;748.95;;;688.65;;
22768;SDS011;13001;51.968;5.918;2022-10-30T05:12:50;755.60;;;695.23;;
22768;SDS011;13001;51.968;5.918;2022-10-30T05:15:18;770.02;;;708.30;;
22768;SDS011;13001;51.968;5.918;2022-10-30T05:17:45;761.88;;;701.10;;
22768;SDS011;13001;51.968;5.918;2022-10-30T05:20:14;740.15;;;680.22;;
22768;SDS011;13001;51.968;5.918;2022-10-30T05:22:41;756.20;;;694.55;;
22768;SDS011;13001;51.968;5.918;2022-10-30T05:25:08;754.33;;;693.60;;
22768;SDS011;13001;51.968;5.918;2022-10-30T05:27:35;742.50;;;682.62;;
22768;SDS011;13001;51.968;5.918;2022-10-30T05:30:03;738.57;;;678.73;;
22768;SDS011;13001;51.968;5.918;2022-10-30T05:32:30;736.30;;;676.90;;
22768;SDS011;13001;51.968;5.918;2022-10-30T05:34:57;770.88;;;708.10;;
22768;SDS011;13001;51.968;5.918;2022-10-30T05:37:25;737.67;;;677.52;;
22768;SDS011;13001;51.968;5.918;2022-10-30T05:39:52;685.00;;;626.80;;
22768;SDS011;13001;51.968;5.918;2022-10-30T05:42:19;686.93;;;629.67;;
22768;SDS011;13001;51.968;5.918;2022-10-30T05:44:46;682.65;;;625.22;;
22768;SDS011;13001;51.968;5.918;2022-10-30T05:47:14;665.40;;;609.52;;
22768;SDS011;13001;51.968;5.918;2022-10-30T05:49:41;676.42;;;620.33;;
22768;SDS011;13001;51.968;5.918;2022-10-30T05:52:08;686.03;;;630.73;;
22768;SDS011;13001;51.968;5.918;2022-10-30T05:54:36;711.95;;;653.50;;
22768;SDS011;13001;51.968;5.918;2022-10-30T05:57:03;685.75;;;629.45;;
22768;SDS011;13001;51.968;5.918;2022-10-30T05:59:30;693.23;;;635.50;;
22768;SDS011;13001;51.968;5.918;2022-10-30T06:01:57;677.28;;;621.22;;
22768;SDS011;13001;51.968;5.918;2022-10-30T06:04:25;645.80;;;591.45;;
22768;SDS011;13001;51.968;5.918;2022-10-30T06:06:52;615.03;;;563.07;;
22768;SDS011;13001;51.968;5.918;2022-10-30T06:09:19;596.53;;;547.02;;
22768;SDS011;13001;51.968;5.918;2022-10-30T06:11:46;603.83;;;553.83;;
22768;SDS011;13001;51.968;5.918;2022-10-30T06:14:14;615.50;;;564.65;;
22768;SDS011;13001;51.968;5.918;2022-10-30T06:16:41;677.30;;;622.15;;
22768;SDS011;13001;51.968;5.918;2022-10-30T06:19:08;604.70;;;555.27;;
22768;SDS011;13001;51.968;5.918;2022-10-30T06:21:35;591.85;;;543.02;;
22768;SDS011;13001;51.968;5.918;2022-10-30T06:24:03;605.42;;;555.08;;
22768;SDS011;13001;51.968;5.918;2022-10-30T06:26:30;668.45;;;613.52;;
22768;SDS011;13001;51.968;5.918;2022-10-30T06:28:57;707.63;;;650.80;;
22768;SDS011;13001;51.968;5.918;2022-10-30T06:31:25;698.30;;;642.37;;
22768;SDS011;13001;51.968;5.918;2022-10-30T06:33:52;657.95;;;603.73;;
22768;SDS011;13001;51.968;5.918;2022-10-30T06:36:19;687.52;;;632.02;;
22768;SDS011;13001;51.968;5.918;2022-10-30T06:38:46;696.35;;;639.70;;
22768;SDS011;13001;51.968;5.918;2022-10-30T06:41:14;655.98;;;602.47;;
22768;SDS011;13001;51.968;5.918;2022-10-30T06:43:41;620.77;;;569.20;;
22768;SDS011;13001;51.968;5.918;2022-10-30T06:46:08;681.83;;;625.85;;
22768;SDS011;13001;51.968;5.918;2022-10-30T06:48:35;664.73;;;610.63;;
22768;SDS011;13001;51.968;5.918;2022-10-30T06:51:03;663.52;;;610.33;;
22768;SDS011;13001;51.968;5.918;2022-10-30T06:53:30;663.30;;;609.75;;
22768;SDS011;13001;51.968;5.918;2022-10-30T06:56:00;669.75;;;616.30;;
22768;SDS011;13001;51.968;5.918;2022-10-30T06:58:28;691.05;;;635.25;;
22768;SDS011;13001;51.968;5.918;2022-10-30T07:00:58;676.27;;;621.37;;
22768;SDS011;13001;51.968;5.918;2022-10-30T07:03:26;638.15;;;584.75;;
22768;SDS011;13001;51.968;5.918;2022-10-30T07:05:53;661.50;;;607.15;;
22768;SDS011;13001;51.968;5.918;2022-10-30T07:08:21;640.75;;;587.00;;
22768;SDS011;13001;51.968;5.918;2022-10-30T07:10:48;583.35;;;534.35;;
22768;SDS011;13001;51.968;5.918;2022-10-30T07:13:15;610.70;;;558.83;;
22768;SDS011;13001;51.968;5.918;2022-10-30T07:15:43;605.15;;;556.45;;
22768;SDS011;13001;51.968;5.918;2022-10-30T07:18:10;627.52;;;581.02;;
22768;SDS011;13001;51.968;5.918;2022-10-30T07:20:42;647.87;;;598.45;;
22768;SDS011;13001;51.968;5.918;2022-10-30T07:23:10;658.42;;;607.65;;
22768;SDS011;13001;51.968;5.918;2022-10-30T07:25:37;729.23;;;672.05;;
22768;SDS011;13001;51.968;5.918;2022-10-30T07:28:05;791.30;;;715.77;;
22768;SDS011;13001;51.968;5.918;2022-10-30T07:30:33;656.80;;;606.80;;
22768;SDS011;13001;51.968;5.918;2022-10-30T07:33:01;660.37;;;608.12;;
22768;SDS011;13001;51.968;5.918;2022-10-30T07:35:29;579.12;;;534.65;;
22768;SDS011;13001;51.968;5.918;2022-10-30T07:38:01;455.07;;;421.68;;
22768;SDS011;13001;51.968;5.918;2022-10-30T07:40:29;367.45;;;340.98;;
22768;SDS011;13001;51.968;5.918;2022-10-30T07:42:57;375.73;;;346.85;;
22768;SDS011;13001;51.968;5.918;2022-10-30T07:45:25;381.68;;;350.75;;
22768;SDS011;13001;51.968;5.918;2022-10-30T07:47:53;397.23;;;365.02;;
22768;SDS011;13001;51.968;5.918;2022-10-30T07:50:20;350.15;;;326.58;;
22768;SDS011;13001;51.968;5.918;2022-10-30T07:52:48;355.15;;;331.45;;
22768;SDS011;13001;51.968;5.918;2022-10-30T07:55:15;384.05;;;358.90;;
22768;SDS011;13001;51.968;5.918;2022-10-30T07:57:42;580.50;;;536.85;;
22768;SDS011;13001;51.968;5.918;2022-10-30T08:00:10;644.62;;;593.50;;
22768;SDS011;13001;51.968;5.918;2022-10-30T08:02:38;620.23;;;570.95;;
22768;SDS011;13001;51.968;5.918;2022-10-30T08:05:06;551.82;;;510.30;;
22768;SDS011;13001;51.968;5.918;2022-10-30T08:07:34;429.70;;;400.45;;
22768;SDS011;13001;51.968;5.918;2022-10-30T08:10:02;486.47;;;453.08;;
22768;SDS011;13001;51.968;5.918;2022-10-30T08:12:31;506.17;;;472.27;;
22768;SDS011;13001;51.968;5.918;2022-10-30T08:14:58;466.85;;;435.90;;
22768;SDS011;13001;51.968;5.918;2022-10-30T08:17:26;516.38;;;481.20;;
22768;SDS011;13001;51.968;5.918;2022-10-30T08:19:54;352.87;;;330.05;;
22768;SDS011;13001;51.968;5.918;2022-10-30T08:22:22;434.75;;;403.18;;
22768;SDS011;13001;51.968;5.918;2022-10-30T08:24:49;463.42;;;426.55;;
22768;SDS011;13001;51.968;5.918;2022-10-30T08:27:16;462.18;;;426.07;;
22768;SDS011;13001;51.968;5.918;2022-10-30T08:29:44;462.10;;;425.23;;
22768;SDS011;13001;51.968;5.918;2022-10-30T08:32:13;469.73;;;432.90;;
22768;SDS011;13001;51.968;5.918;2022-10-30T08:34:40;352.10;;;323.85;;
22768;SDS011;13001;51.968;5.918;2022-10-30T08:37:07;354.00;;;326.40;;
22768;SDS011;13001;51.968;5.918;2022-10-30T08:39:34;399.37;;;371.37;;
22768;SDS011;13001;51.968;5.918;2022-10-30T08:42:02;396.02;;;369.02;;
22768;SDS011;13001;51.968;5.918;2022-10-30T08:44:29;395.55;;;369.30;;
22768;SDS011;13001;51.968;5.918;2022-10-30T08:46:57;398.25;;;372.63;;
22768;SDS011;13001;51.968;5.918;2022-10-30T08:49:24;420.00;;;393.02;;
22768;SDS011;13001;51.968;5.918;2022-10-30T08:51:51;374.67;;;350.35;;
22768;SDS011;13001;51.968;5.918;2022-10-30T08:54:19;392.68;;;367.18;;
22768;SDS011;13001;51.968;5.918;2022-10-30T08:56:46;415.58;;;388.35;;
22768;SDS011;13001;51.968;5.918;2022-10-30T08:59:13;574.52;;;528.92;;
22768;SDS011;13001;51.968;5.918;2022-10-30T09:01:40;727.37;;;663.05;;
22768;SDS011;13001;51.968;5.918;2022-10-30T09:04:08;722.25;;;659.95;;
22768;SDS011;13001;51.968;5.918;2022-10-30T09:06:35;646.10;;;592.80;;
22768;SDS011;13001;51.968;5.918;2022-10-30T09:09:03;463.98;;;430.77;;
22768;SDS011;13001;51.968;5.918;2022-10-30T09:11:30;444.77;;;414.50;;
22768;SDS011;13001;51.968;5.918;2022-10-30T09:13:57;444.32;;;413.85;;
22768;SDS011;13001;51.968;5.918;2022-10-30T09:16:24;491.32;;;456.35;;
22768;SDS011;13001;51.968;5.918;2022-10-30T09:18:52;492.90;;;457.70;;
22768;SDS011;13001;51.968;5.918;2022-10-30T09:21:19;456.20;;;421.42;;
22768;SDS011;13001;51.968;5.918;2022-10-30T09:23:46;454.65;;;418.45;;
22768;SDS011;13001;51.968;5.918;2022-10-30T09:26:13;458.25;;;420.08;;
22768;SDS011;13001;51.968;5.918;2022-10-30T09:28:41;533.50;;;489.17;;
22768;SDS011;13001;51.968;5.918;2022-10-30T09:31:09;455.60;;;416.47;;
22768;SDS011;13001;51.968;5.918;2022-10-30T09:33:36;504.37;;;460.97;;
22768;SDS011;13001;51.968;5.918;2022-10-30T09:36:03;482.40;;;442.70;;
22768;SDS011;13001;51.968;5.918;2022-10-30T09:38:31;558.63;;;513.67;;
22768;SDS011;13001;51.968;5.918;2022-10-30T09:41:15;482.97;;;444.43;;
22768;SDS011;13001;51.968;5.918;2022-10-30T09:51:42;621.33;;;572.50;;
22768;SDS011;13001;51.968;5.918;2022-10-30T09:54:11;574.77;;;529.53;;
22768;SDS011;13001;51.968;5.918;2022-10-30T09:56:49;580.77;;;536.45;;
22768;SDS011;13001;51.968;5.918;2022-10-30T09:59:23;508.48;;;470.75;;
22768;SDS011;13001;51.968;5.918;2022-10-30T10:01:51;473.40;;;439.43;;
22768;SDS011;13001;51.968;5.918;2022-10-30T10:04:23;529.00;;;493.27;;
22768;SDS011;13001;51.968;5.918;2022-10-30T10:06:51;492.57;;;458.35;;
22768;SDS011;13001;51.968;5.918;2022-10-30T10:09:19;475.85;;;442.95;;
22768;SDS011;13001;51.968;5.918;2022-10-30T10:11:48;450.62;;;418.90;;
22768;SDS011;13001;51.968;5.918;2022-10-30T10:14:23;474.73;;;441.95;;
22768;SDS011;13001;51.968;5.918;2022-10-30T10:16:51;499.23;;;464.05;;
22768;SDS011;13001;51.968;5.918;2022-10-30T10:19:32;483.83;;;450.83;;
22768;SDS011;13001;51.968;5.918;2022-10-30T10:22:00;484.22;;;449.75;;
22768;SDS011;13001;51.968;5.918;2022-10-30T10:24:32;493.65;;;458.15;;
22768;SDS011;13001;51.968;5.918;2022-10-30T10:35:07;577.08;;;536.23;;
22768;SDS011;13001;51.968;5.918;2022-10-30T10:45:25;584.70;;;539.90;;
22768;SDS011;13001;51.968;5.918;2022-10-30T10:50:22;493.27;;;457.10;;
22768;SDS011;13001;51.968;5.918;2022-10-30T10:53:06;519.23;;;481.87;;
22768;SDS011;13001;51.968;5.918;2022-10-30T10:55:34;527.73;;;490.40;;
22768;SDS011;13001;51.968;5.918;2022-10-30T10:58:07;531.10;;;493.13;;
22768;SDS011;13001;51.968;5.918;2022-10-30T11:00:31;540.20;;;501.23;;
22768;SDS011;13001;51.968;5.918;2022-10-30T11:03:04;604.12;;;558.33;;
22768;SDS011;13001;51.968;5.918;2022-10-30T11:05:39;586.52;;;542.35;;
22768;SDS011;13001;51.968;5.918;2022-10-30T11:08:09;543.48;;;503.90;;
22768;SDS011;13001;51.968;5.918;2022-10-30T11:10:34;551.75;;;511.40;;
22768;SDS011;13001;51.968;5.918;2022-10-30T11:13:01;573.60;;;529.77;;
22768;SDS011;13001;51.968;5.918;2022-10-30T11:15:35;572.33;;;529.02;;
22768;SDS011;13001;51.968;5.918;2022-10-30T11:18:04;586.87;;;542.67;;
22768;SDS011;13001;51.968;5.918;2022-10-30T11:20:35;554.83;;;512.23;;
22768;SDS011;13001;51.968;5.918;2022-10-30T11:23:01;545.30;;;505.27;;
22768;SDS011;13001;51.968;5.918;2022-10-30T11:25:34;522.98;;;484.93;;
22768;SDS011;13001;51.968;5.918;2022-10-30T11:28:04;465.67;;;431.93;;
22768;SDS011;13001;51.968;5.918;2022-10-30T11:30:32;493.13;;;456.63;;
22768;SDS011;13001;51.968;5.918;2022-10-30T11:32:59;513.85;;;476.63;;
22768;SDS011;13001;51.968;5.918;2022-10-30T11:35:28;535.67;;;497.35;;
22768;SDS011;13001;51.968;5.918;2022-10-30T11:38:11;512.25;;;475.90;;
22768;SDS011;13001;51.968;5.918;2022-10-30T11:40:39;504.15;;;468.17;;
22768;SDS011;13001;51.968;5.918;2022-10-30T11:43:08;496.00;;;460.27;;
22768;SDS011;13001;51.968;5.918;2022-10-30T11:45:37;500.15;;;463.95;;
22768;SDS011;13001;51.968;5.918;2022-10-30T11:48:16;519.90;;;483.25;;
22768;SDS011;13001;51.968;5.918;2022-10-30T11:50:37;561.83;;;521.80;;
22768;SDS011;13001;51.968;5.918;2022-10-30T11:53:11;482.82;;;448.35;;
22768;SDS011;13001;51.968;5.918;2022-10-30T11:55:48;551.52;;;512.30;;
22768;SDS011;13001;51.968;5.918;2022-10-30T11:58:16;581.97;;;541.07;;
22768;SDS011;13001;51.968;5.918;2022-10-30T12:00:36;559.37;;;519.47;;
22768;SDS011;13001;51.968;5.918;2022-10-30T12:03:24;612.88;;;568.40;;
22768;SDS011;13001;51.968;5.918;2022-10-30T12:05:36;597.90;;;554.53;;
22768;SDS011;13001;51.968;5.918;2022-10-30T12:08:14;601.97;;;556.73;;
22768;SDS011;13001;51.968;5.918;2022-10-30T12:11:06;539.63;;;499.95;;
22768;SDS011;13001;51.968;5.918;2022-10-30T12:13:16;487.82;;;453.05;;
22768;SDS011;13001;51.968;5.918;2022-10-30T12:15:46;497.50;;;462.77;;
22768;SDS011;13001;51.968;5.918;2022-10-30T12:18:18;492.07;;;458.00;;
22768;SDS011;13001;51.968;5.918;2022-10-30T12:20:45;484.67;;;450.45;;
22768;SDS011;13001;51.968;5.918;2022-10-30T12:23:18;495.62;;;460.10;;
22768;SDS011;13001;51.968;5.918;2022-10-30T12:25:47;505.03;;;468.25;;
22768;SDS011;13001;51.968;5.918;2022-10-30T12:28:15;542.63;;;504.60;;
22768;SDS011;13001;51.968;5.918;2022-10-30T12:30:51;622.40;;;578.27;;
22768;SDS011;13001;51.968;5.918;2022-10-30T12:33:24;540.05;;;502.35;;
22768;SDS011;13001;51.968;5.918;2022-10-30T12:35:56;541.03;;;502.20;;
22768;SDS011;13001;51.968;5.918;2022-10-30T12:38:35;557.10;;;517.90;;
22768;SDS011;13001;51.968;5.918;2022-10-30T12:43:40;547.17;;;507.47;;
22768;SDS011;13001;51.968;5.918;2022-10-30T12:48:42;522.75;;;486.20;;
22768;SDS011;13001;51.968;5.918;2022-10-30T12:56:25;533.03;;;496.00;;
22768;SDS011;13001;51.968;5.918;2022-10-30T12:58:55;525.90;;;489.07;;
22768;SDS011;13001;51.968;5.918;2022-10-30T13:04:09;512.85;;;476.52;;
22768;SDS011;13001;51.968;5.918;2022-10-30T13:09:26;528.63;;;490.67;;
22768;SDS011;13001;51.968;5.918;2022-10-30T13:11:59;549.50;;;510.00;;
22768;SDS011;13001;51.968;5.918;2022-10-30T13:14:33;552.75;;;513.90;;
22768;SDS011;13001;51.968;5.918;2022-10-30T13:16:55;545.60;;;507.08;;
22768;SDS011;13001;51.968;5.918;2022-10-30T13:19:23;558.75;;;519.17;;
22768;SDS011;13001;51.968;5.918;2022-10-30T13:21:58;557.50;;;518.40;;
22768;SDS011;13001;51.968;5.918;2022-10-30T13:24:22;562.58;;;523.45;;
22768;SDS011;13001;51.968;5.918;2022-10-30T13:26:57;550.67;;;511.53;;
22768;SDS011;13001;51.968;5.918;2022-10-30T13:29:37;561.65;;;521.72;;
22768;SDS011;13001;51.968;5.918;2022-10-30T13:34:39;570.53;;;530.23;;
22768;SDS011;13001;51.968;5.918;2022-10-30T13:37:18;581.90;;;540.70;;
22768;SDS011;13001;51.968;5.918;2022-10-30T13:42:24;600.55;;;558.10;;
22768;SDS011;13001;51.968;5.918;2022-10-30T13:50:27;599.92;;;559.27;;
22768;SDS011;13001;51.968;5.918;2022-10-30T13:52:53;574.85;;;535.30;;
22768;SDS011;13001;51.968;5.918;2022-10-30T13:55:21;591.43;;;551.63;;
22768;SDS011;13001;51.968;5.918;2022-10-30T13:58:02;553.58;;;516.30;;
22768;SDS011;13001;51.968;5.918;2022-10-30T14:00:31;537.65;;;501.73;;
22768;SDS011;13001;51.968;5.918;2022-10-30T14:10:57;506.10;;;471.37;;
22768;SDS011;13001;51.968;5.918;2022-10-30T14:16:04;510.67;;;475.03;;
22768;SDS011;13001;51.968;5.918;2022-10-30T14:18:41;517.42;;;482.25;;
22768;SDS011;13001;51.968;5.918;2022-10-30T14:21:28;525.67;;;489.93;;
22768;SDS011;13001;51.968;5.918;2022-10-30T14:23:31;496.25;;;460.95;;
22768;SDS011;13001;51.968;5.918;2022-10-30T14:28:30;561.40;;;521.13;;
22768;SDS011;13001;51.968;5.918;2022-10-30T14:31:02;583.20;;;541.83;;
22768;SDS011;13001;51.968;5.918;2022-10-30T14:36:17;614.90;;;571.80;;
22768;SDS011;13001;51.968;5.918;2022-10-30T14:38:53;604.43;;;562.93;;
22768;SDS011;13001;51.968;5.918;2022-10-30T14:41:25;606.42;;;564.65;;
22768;SDS011;13001;51.968;5.918;2022-10-30T14:43:51;623.23;;;578.67;;
22768;SDS011;13001;51.968;5.918;2022-10-30T14:46:31;629.17;;;583.25;;
22768;SDS011;13001;51.968;5.918;2022-10-30T14:48:50;647.55;;;597.52;;
22768;SDS011;13001;51.968;5.918;2022-10-30T14:51:22;662.42;;;610.78;;
22768;SDS011;13001;51.968;5.918;2022-10-30T14:56:30;646.53;;;597.55;;
22768;SDS011;13001;51.968;5.918;2022-10-30T15:01:57;662.62;;;611.98;;
22768;SDS011;13001;51.968;5.918;2022-10-30T15:06:58;635.58;;;588.90;;
22768;SDS011;13001;51.968;5.918;2022-10-30T15:09:30;629.42;;;583.92;;
22768;SDS011;13001;51.968;5.918;2022-10-30T15:14:31;627.30;;;580.80;;
22768;SDS011;13001;51.968;5.918;2022-10-30T15:16:58;639.40;;;590.30;;
22768;SDS011;13001;51.968;5.918;2022-10-30T15:19:26;659.22;;;608.60;;
22768;SDS011;13001;51.968;5.918;2022-10-30T15:21:54;663.20;;;611.85;;
22768;SDS011;13001;51.968;5.918;2022-10-30T15:24:23;623.92;;;578.23;;
22768;SDS011;13001;51.968;5.918;2022-10-30T15:26:52;631.90;;;586.37;;
22768;SDS011;13001;51.968;5.918;2022-10-30T15:29:24;622.15;;;576.98;;
22768;SDS011;13001;51.968;5.918;2022-10-30T15:32:04;617.90;;;573.35;;
22768;SDS011;13001;51.968;5.918;2022-10-30T15:34:32;602.10;;;557.47;;
22768;SDS011;13001;51.968;5.918;2022-10-30T15:36:59;616.35;;;569.95;;
22768;SDS011;13001;51.968;5.918;2022-10-30T15:39:28;612.35;;;566.62;;
22768;SDS011;13001;51.968;5.918;2022-10-30T15:41:59;621.83;;;574.17;;
22768;SDS011;13001;51.968;5.918;2022-10-30T15:44:27;636.10;;;587.17;;